Airfield :
LOGIN :

Register | Disclaimer

   EN    FR    IT 

 










Legend :    VFR   Marginal VFR   IFR   Intensive IFR   Very Intensive IFR
Visi :
Ceiling :
>= 8 km
>= 3000ft
5 to 8 km
1000 to 3000 ft
1500m to 5 km
500 to 1000 ft
800 to 1500m
200 to 500 ft
< 800m
< 200 ft
Symbols :   Thunderstorms  Fog  Heavy snow  Heavy precipitations  Wind > 20 kt
SIGMETs :     Misc.  Thunderstorms  Icing  Turbulence  Mountain Waves  Volcanic Ashes






- Airport Elevation : 288 ft
- IATA code : BZZ


EGVN - RAF Brize Norton

CURRENT METAR :
  • 181750Z 21010KT 9999 FEW025CB 12/07 Q0997 NOSIG RMK BLU BLU

EXPIRED METARs :
  • 181720Z 21009KT 9999 FEW033 12/07 Q0997 NOSIG RMK BLU BLU
  • 181650Z 21010KT 9999 FEW034 13/08 Q0997 NOSIG RMK BLU BLU
  • 181620Z 22009KT 9999 SCT033 13/08 Q0997 NOSIG RMK BLU BLU
  • 181550Z 22009KT 9999 FEW034 14/08 Q0997 NOSIG RMK BLU BLU
  • 181520Z 22008KT 9999 SCT033 13/09 Q0997 NOSIG RMK BLU BLU

TAF TAF EGVN
Valid from the 18 at 18:00 until the 19 at 18:00 UTC


181626Z 1818/1918 22012KT 9999 SCT030
PROB40
TEMPO 1818/1824 -SHRA SCT022
PROB30
TEMPO 1818/1820 23015G25KT 5000 SHRA SCT020CB
PROB30
TEMPO 1903/1907 SCT008
PROB40
TEMPO 1911/1916 5000 SHRA SCT024CB



MET'MAP, your aeronautical weather chart ! - Copyright ORBIFLY December 2007 - Disclaimer

ORBIFLY MET'MAP TEAM :

Programming & Development : Alexandra Zaïnal
Concept & Development : Baudouin d'Aumeries
Co-Development & Prog : Marc-Olivier Méhu
Technical & hardware support : Manuel Goepfert

Contact : metmap@orbifly.com




SOURCES & CREDITS :

   NOAA